sensor_id;sensor_type;location;lat;lon;timestamp;temperature;humidity
78325;DHT22;67584;51.400;6.692;2023-08-17T00:01:40;17.40;92.10
78325;DHT22;67584;51.400;6.692;2023-08-17T00:04:07;17.40;92.20
78325;DHT22;67584;51.400;6.692;2023-08-17T00:06:33;17.30;92.20
78325;DHT22;67584;51.400;6.692;2023-08-17T00:08:59;17.40;92.20
78325;DHT22;67584;51.400;6.692;2023-08-17T00:11:24;17.40;92.00
78325;DHT22;67584;51.400;6.692;2023-08-17T00:13:50;17.40;92.10
78325;DHT22;67584;51.400;6.692;2023-08-17T00:16:17;17.30;92.10
78325;DHT22;67584;51.400;6.692;2023-08-17T00:18:42;17.40;92.10
78325;DHT22;67584;51.400;6.692;2023-08-17T00:21:09;17.40;92.00
78325;DHT22;67584;51.400;6.692;2023-08-17T00:23:35;17.40;92.00
78325;DHT22;67584;51.400;6.692;2023-08-17T00:26:00;17.40;92.10
78325;DHT22;67584;51.400;6.692;2023-08-17T00:28:26;17.40;92.00
78325;DHT22;67584;51.400;6.692;2023-08-17T00:30:52;17.40;92.00
78325;DHT22;67584;51.400;6.692;2023-08-17T00:33:18;17.40;92.10
78325;DHT22;67584;51.400;6.692;2023-08-17T00:35:43;17.30;92.10
78325;DHT22;67584;51.400;6.692;2023-08-17T00:38:11;17.40;92.10
78325;DHT22;67584;51.400;6.692;2023-08-17T00:40:37;17.30;92.00
78325;DHT22;67584;51.400;6.692;2023-08-17T00:43:03;17.30;92.00
78325;DHT22;67584;51.400;6.692;2023-08-17T00:45:29;17.30;92.00
78325;DHT22;67584;51.400;6.692;2023-08-17T00:47:57;17.50;92.00
78325;DHT22;67584;51.400;6.692;2023-08-17T00:50:25;17.40;91.90
78325;DHT22;67584;51.400;6.692;2023-08-17T00:52:52;17.30;91.90
78325;DHT22;67584;51.400;6.692;2023-08-17T00:55:19;17.30;91.90
78325;DHT22;67584;51.400;6.692;2023-08-17T00:57:45;17.30;91.90
78325;DHT22;67584;51.400;6.692;2023-08-17T01:00:12;17.30;92.00
78325;DHT22;67584;51.400;6.692;2023-08-17T01:02:42;17.30;92.00
78325;DHT22;67584;51.400;6.692;2023-08-17T01:05:09;17.20;92.10
78325;DHT22;67584;51.400;6.692;2023-08-17T01:07:34;17.30;92.00
78325;DHT22;67584;51.400;6.692;2023-08-17T01:10:01;17.30;92.20
78325;DHT22;67584;51.400;6.692;2023-08-17T01:15:18;17.10;92.10
78325;DHT22;67584;51.400;6.692;2023-08-17T01:20:16;17.10;92.20
78325;DHT22;67584;51.400;6.692;2023-08-17T01:22:45;17.20;92.10
78325;DHT22;67584;51.400;6.692;2023-08-17T01:25:12;17.00;92.20
78325;DHT22;67584;51.400;6.692;2023-08-17T01:27:43;17.00;92.10
78325;DHT22;67584;51.400;6.692;2023-08-17T01:30:11;17.00;92.10
78325;DHT22;67584;51.400;6.692;2023-08-17T01:32:53;17.00;92.10
78325;DHT22;67584;51.400;6.692;2023-08-17T01:35:34;17.00;92.10
78325;DHT22;67584;51.400;6.692;2023-08-17T01:38:06;16.90;92.20
78325;DHT22;67584;51.400;6.692;2023-08-17T01:40:33;17.00;92.20
78325;DHT22;67584;51.400;6.692;2023-08-17T01:43:01;17.00;92.20
78325;DHT22;67584;51.400;6.692;2023-08-17T01:45:27;17.10;92.10
78325;DHT22;67584;51.400;6.692;2023-08-17T01:47:55;17.10;92.10
78325;DHT22;67584;51.400;6.692;2023-08-17T01:50:20;17.10;92.10
78325;DHT22;67584;51.400;6.692;2023-08-17T01:52:48;17.10;92.20
78325;DHT22;67584;51.400;6.692;2023-08-17T01:55:16;17.20;92.20
78325;DHT22;67584;51.400;6.692;2023-08-17T01:57:42;17.00;92.10
78325;DHT22;67584;51.400;6.692;2023-08-17T02:00:08;17.10;92.10
78325;DHT22;67584;51.400;6.692;2023-08-17T02:02:39;17.10;92.10
78325;DHT22;67584;51.400;6.692;2023-08-17T02:05:06;17.10;92.10
78325;DHT22;67584;51.400;6.692;2023-08-17T02:07:32;17.10;91.90
78325;DHT22;67584;51.400;6.692;2023-08-17T02:09:57;17.10;91.90
78325;DHT22;67584;51.400;6.692;2023-08-17T02:12:25;17.20;91.90
78325;DHT22;67584;51.400;6.692;2023-08-17T02:14:50;17.20;92.00
78325;DHT22;67584;51.400;6.692;2023-08-17T02:17:16;17.10;91.90
78325;DHT22;67584;51.400;6.692;2023-08-17T02:19:42;17.10;92.00
78325;DHT22;67584;51.400;6.692;2023-08-17T02:22:10;17.20;91.90
78325;DHT22;67584;51.400;6.692;2023-08-17T02:24:37;17.20;92.00
78325;DHT22;67584;51.400;6.692;2023-08-17T02:27:02;17.20;92.00
78325;DHT22;67584;51.400;6.692;2023-08-17T02:29:28;17.10;92.00
78325;DHT22;67584;51.400;6.692;2023-08-17T02:31:54;17.00;92.10
78325;DHT22;67584;51.400;6.692;2023-08-17T02:34:19;17.10;92.00
78325;DHT22;67584;51.400;6.692;2023-08-17T02:36:45;17.10;92.10
78325;DHT22;67584;51.400;6.692;2023-08-17T02:39:11;17.10;92.10
78325;DHT22;67584;51.400;6.692;2023-08-17T02:41:36;17.10;92.00
78325;DHT22;67584;51.400;6.692;2023-08-17T02:44:03;16.90;92.00
78325;DHT22;67584;51.400;6.692;2023-08-17T02:46:29;16.90;92.00
78325;DHT22;67584;51.400;6.692;2023-08-17T02:48:54;16.80;92.00
78325;DHT22;67584;51.400;6.692;2023-08-17T02:51:20;16.90;92.00
78325;DHT22;67584;51.400;6.692;2023-08-17T02:53:46;16.80;91.90
78325;DHT22;67584;51.400;6.692;2023-08-17T02:56:11;16.80;92.00
78325;DHT22;67584;51.400;6.692;2023-08-17T02:58:40;16.70;92.00
78325;DHT22;67584;51.400;6.692;2023-08-17T03:01:07;16.70;92.00
78325;DHT22;67584;51.400;6.692;2023-08-17T03:03:33;16.60;92.00
78325;DHT22;67584;51.400;6.692;2023-08-17T03:05:59;16.60;92.00
78325;DHT22;67584;51.400;6.692;2023-08-17T03:08:25;16.50;91.90
78325;DHT22;67584;51.400;6.692;2023-08-17T03:10:52;16.50;92.00
78325;DHT22;67584;51.400;6.692;2023-08-17T03:13:17;16.50;92.00
78325;DHT22;67584;51.400;6.692;2023-08-17T03:15:43;16.40;92.00
78325;DHT22;67584;51.400;6.692;2023-08-17T03:18:09;16.40;92.10
78325;DHT22;67584;51.400;6.692;2023-08-17T03:20:37;16.40;92.10
78325;DHT22;67584;51.400;6.692;2023-08-17T03:23:02;16.50;92.10
78325;DHT22;67584;51.400;6.692;2023-08-17T03:25:32;16.40;92.00
78325;DHT22;67584;51.400;6.692;2023-08-17T03:27:59;16.50;92.10
78325;DHT22;67584;51.400;6.692;2023-08-17T03:30:25;16.60;92.10
78325;DHT22;67584;51.400;6.692;2023-08-17T03:32:51;16.60;92.00
78325;DHT22;67584;51.400;6.692;2023-08-17T03:35:17;16.60;92.00
78325;DHT22;67584;51.400;6.692;2023-08-17T03:37:43;16.50;92.00
78325;DHT22;67584;51.400;6.692;2023-08-17T03:40:10;16.60;91.90
78325;DHT22;67584;51.400;6.692;2023-08-17T03:42:35;16.60;91.90
78325;DHT22;67584;51.400;6.692;2023-08-17T03:45:02;16.60;91.90
78325;DHT22;67584;51.400;6.692;2023-08-17T03:47:28;16.60;92.00
78325;DHT22;67584;51.400;6.692;2023-08-17T03:49:54;16.60;91.90
78325;DHT22;67584;51.400;6.692;2023-08-17T03:52:20;16.60;91.80
78325;DHT22;67584;51.400;6.692;2023-08-17T03:54:47;16.50;91.90
78325;DHT22;67584;51.400;6.692;2023-08-17T03:57:12;16.60;92.00
78325;DHT22;67584;51.400;6.692;2023-08-17T03:59:38;16.60;91.90
78325;DHT22;67584;51.400;6.692;2023-08-17T04:02:04;16.60;91.90
78325;DHT22;67584;51.400;6.692;2023-08-17T04:04:29;16.60;91.90
78325;DHT22;67584;51.400;6.692;2023-08-17T04:06:56;16.60;91.80
78325;DHT22;67584;51.400;6.692;2023-08-17T04:09:22;16.50;91.90
78325;DHT22;67584;51.400;6.692;2023-08-17T04:11:48;16.60;92.00
78325;DHT22;67584;51.400;6.692;2023-08-17T04:14:13;16.60;91.90
78325;DHT22;67584;51.400;6.692;2023-08-17T04:16:40;16.70;91.70
78325;DHT22;67584;51.400;6.692;2023-08-17T04:19:06;16.50;91.90
78325;DHT22;67584;51.400;6.692;2023-08-17T04:21:31;16.60;91.80
78325;DHT22;67584;51.400;6.692;2023-08-17T04:23:57;16.70;92.00
78325;DHT22;67584;51.400;6.692;2023-08-17T04:26:23;16.60;91.80
78325;DHT22;67584;51.400;6.692;2023-08-17T04:28:49;16.60;91.70
78325;DHT22;67584;51.400;6.692;2023-08-17T04:31:16;16.60;91.90
78325;DHT22;67584;51.400;6.692;2023-08-17T04:33:43;16.60;91.80
78325;DHT22;67584;51.400;6.692;2023-08-17T04:36:09;16.70;91.80
78325;DHT22;67584;51.400;6.692;2023-08-17T04:38:35;16.90;91.80
78325;DHT22;67584;51.400;6.692;2023-08-17T04:41:01;16.90;91.60
78325;DHT22;67584;51.400;6.692;2023-08-17T04:43:27;16.90;91.20
78325;DHT22;67584;51.400;6.692;2023-08-17T04:45:53;16.80;91.20
78325;DHT22;67584;51.400;6.692;2023-08-17T04:48:19;16.90;91.20
78325;DHT22;67584;51.400;6.692;2023-08-17T04:50:46;17.10;91.10
78325;DHT22;67584;51.400;6.692;2023-08-17T04:53:11;17.10;91.00
78325;DHT22;67584;51.400;6.692;2023-08-17T04:55:37;17.20;90.80
78325;DHT22;67584;51.400;6.692;2023-08-17T04:58:03;17.20;90.70
78325;DHT22;67584;51.400;6.692;2023-08-17T05:00:29;17.30;90.60
78325;DHT22;67584;51.400;6.692;2023-08-17T05:02:55;17.40;90.60
78325;DHT22;67584;51.400;6.692;2023-08-17T05:05:23;17.40;90.40
78325;DHT22;67584;51.400;6.692;2023-08-17T05:07:49;17.60;90.30
78325;DHT22;67584;51.400;6.692;2023-08-17T05:10:16;17.60;90.10
78325;DHT22;67584;51.400;6.692;2023-08-17T05:12:42;17.70;90.00
78325;DHT22;67584;51.400;6.692;2023-08-17T05:15:09;17.70;89.60
78325;DHT22;67584;51.400;6.692;2023-08-17T05:17:34;17.80;89.70
78325;DHT22;67584;51.400;6.692;2023-08-17T05:20:01;17.80;89.50
78325;DHT22;67584;51.400;6.692;2023-08-17T05:22:28;17.90;89.40
78325;DHT22;67584;51.400;6.692;2023-08-17T05:24:54;17.90;89.10
78325;DHT22;67584;51.400;6.692;2023-08-17T05:27:19;17.90;89.40
78325;DHT22;67584;51.400;6.692;2023-08-17T05:29:47;17.90;89.00
78325;DHT22;67584;51.400;6.692;2023-08-17T05:32:12;18.00;89.10
78325;DHT22;67584;51.400;6.692;2023-08-17T05:34:38;18.10;89.00
78325;DHT22;67584;51.400;6.692;2023-08-17T05:37:04;18.10;88.80
78325;DHT22;67584;51.400;6.692;2023-08-17T05:39:30;18.10;88.50
78325;DHT22;67584;51.400;6.692;2023-08-17T05:41:55;18.10;88.60
78325;DHT22;67584;51.400;6.692;2023-08-17T05:44:22;18.00;88.30
78325;DHT22;67584;51.400;6.692;2023-08-17T05:46:48;18.10;88.30
78325;DHT22;67584;51.400;6.692;2023-08-17T05:49:14;18.10;88.30
78325;DHT22;67584;51.400;6.692;2023-08-17T05:51:39;18.20;88.20
78325;DHT22;67584;51.400;6.692;2023-08-17T05:54:05;18.10;87.90
78325;DHT22;67584;51.400;6.692;2023-08-17T05:56:31;18.00;88.10
78325;DHT22;67584;51.400;6.692;2023-08-17T05:58:57;18.10;87.50
78325;DHT22;67584;51.400;6.692;2023-08-17T06:01:23;18.20;87.90
78325;DHT22;67584;51.400;6.692;2023-08-17T06:03:48;18.40;87.60
78325;DHT22;67584;51.400;6.692;2023-08-17T06:06:15;18.50;87.10
78325;DHT22;67584;51.400;6.692;2023-08-17T06:08:40;18.50;87.10
78325;DHT22;67584;51.400;6.692;2023-08-17T06:11:06;18.50;86.80
78325;DHT22;67584;51.400;6.692;2023-08-17T06:13:32;18.50;86.50
78325;DHT22;67584;51.400;6.692;2023-08-17T06:15:57;18.60;86.60
78325;DHT22;67584;51.400;6.692;2023-08-17T06:18:23;18.60;86.30
78325;DHT22;67584;51.400;6.692;2023-08-17T06:20:49;18.60;85.90
78325;DHT22;67584;51.400;6.692;2023-08-17T06:23:17;18.60;86.00
78325;DHT22;67584;51.400;6.692;2023-08-17T06:25:43;18.60;85.70
78325;DHT22;67584;51.400;6.692;2023-08-17T06:28:08;18.50;85.70
78325;DHT22;67584;51.400;6.692;2023-08-17T06:30:34;18.60;86.00
78325;DHT22;67584;51.400;6.692;2023-08-17T06:33:00;18.80;86.00
78325;DHT22;67584;51.400;6.692;2023-08-17T06:35:25;18.80;85.50
78325;DHT22;67584;51.400;6.692;2023-08-17T06:37:51;18.90;85.30
78325;DHT22;67584;51.400;6.692;2023-08-17T06:40:20;19.10;85.00
78325;DHT22;67584;51.400;6.692;2023-08-17T06:42:45;19.10;85.00
78325;DHT22;67584;51.400;6.692;2023-08-17T06:45:11;19.30;84.50
78325;DHT22;67584;51.400;6.692;2023-08-17T06:47:37;19.40;84.00
78325;DHT22;67584;51.400;6.692;2023-08-17T06:50:03;19.40;84.20
78325;DHT22;67584;51.400;6.692;2023-08-17T06:52:29;19.40;84.00
78325;DHT22;67584;51.400;6.692;2023-08-17T06:54:54;19.40;83.90
78325;DHT22;67584;51.400;6.692;2023-08-17T06:57:20;19.50;83.30
78325;DHT22;67584;51.400;6.692;2023-08-17T06:59:47;19.40;83.50
78325;DHT22;67584;51.400;6.692;2023-08-17T07:02:13;19.70;83.50
78325;DHT22;67584;51.400;6.692;2023-08-17T07:04:38;19.70;83.40
78325;DHT22;67584;51.400;6.692;2023-08-17T07:07:04;19.70;83.10
78325;DHT22;67584;51.400;6.692;2023-08-17T07:09:30;19.80;82.70
78325;DHT22;67584;51.400;6.692;2023-08-17T07:11:55;19.90;82.40
78325;DHT22;67584;51.400;6.692;2023-08-17T07:14:21;19.80;82.20
78325;DHT22;67584;51.400;6.692;2023-08-17T07:16:47;19.90;82.20
78325;DHT22;67584;51.400;6.692;2023-08-17T07:19:12;19.90;82.10
78325;DHT22;67584;51.400;6.692;2023-08-17T07:21:39;19.80;82.30
78325;DHT22;67584;51.400;6.692;2023-08-17T07:24:23;19.90;81.80
78325;DHT22;67584;51.400;6.692;2023-08-17T07:26:48;19.90;81.80
78325;DHT22;67584;51.400;6.692;2023-08-17T07:29:14;20.00;81.70
78325;DHT22;67584;51.400;6.692;2023-08-17T07:31:40;20.10;81.20
78325;DHT22;67584;51.400;6.692;2023-08-17T07:34:06;20.00;81.70
78325;DHT22;67584;51.400;6.692;2023-08-17T07:36:33;20.00;81.40
78325;DHT22;67584;51.400;6.692;2023-08-17T07:38:59;20.30;81.30
78325;DHT22;67584;51.400;6.692;2023-08-17T07:41:25;20.10;81.00
78325;DHT22;67584;51.400;6.692;2023-08-17T07:43:50;20.00;81.50
78325;DHT22;67584;51.400;6.692;2023-08-17T07:46:16;19.90;81.70
78325;DHT22;67584;51.400;6.692;2023-08-17T07:48:42;19.80;81.60
78325;DHT22;67584;51.400;6.692;2023-08-17T07:51:07;19.90;81.50
78325;DHT22;67584;51.400;6.692;2023-08-17T07:53:33;20.00;81.60
78325;DHT22;67584;51.400;6.692;2023-08-17T07:55:59;20.10;81.40
78325;DHT22;67584;51.400;6.692;2023-08-17T07:58:24;19.90;81.40
78325;DHT22;67584;51.400;6.692;2023-08-17T08:00:50;19.80;81.40
78325;DHT22;67584;51.400;6.692;2023-08-17T08:03:16;19.80;81.70
78325;DHT22;67584;51.400;6.692;2023-08-17T08:05:42;19.90;81.50
78325;DHT22;67584;51.400;6.692;2023-08-17T08:08:07;19.90;81.90
78325;DHT22;67584;51.400;6.692;2023-08-17T08:10:33;20.00;81.70
78325;DHT22;67584;51.400;6.692;2023-08-17T08:12:59;20.10;81.20
78325;DHT22;67584;51.400;6.692;2023-08-17T08:15:25;20.10;81.10
78325;DHT22;67584;51.400;6.692;2023-08-17T08:17:50;20.10;81.20
78325;DHT22;67584;51.400;6.692;2023-08-17T08:20:16;20.10;81.30
78325;DHT22;67584;51.400;6.692;2023-08-17T08:22:42;20.20;81.00
78325;DHT22;67584;51.400;6.692;2023-08-17T08:25:07;20.20;81.00
78325;DHT22;67584;51.400;6.692;2023-08-17T08:27:33;20.50;80.80
78325;DHT22;67584;51.400;6.692;2023-08-17T08:29:59;20.50;80.50
78325;DHT22;67584;51.400;6.692;2023-08-17T08:32:24;20.50;80.30
78325;DHT22;67584;51.400;6.692;2023-08-17T08:34:50;20.50;80.40
78325;DHT22;67584;51.400;6.692;2023-08-17T08:37:16;20.60;80.20
78325;DHT22;67584;51.400;6.692;2023-08-17T08:39:52;20.80;79.50
78325;DHT22;67584;51.400;6.692;2023-08-17T08:42:19;21.00;79.20
78325;DHT22;67584;51.400;6.692;2023-08-17T08:44:46;21.00;79.30
78325;DHT22;67584;51.400;6.692;2023-08-17T08:47:12;20.90;79.50
78325;DHT22;67584;51.400;6.692;2023-08-17T08:50:00;21.10;79.00
78325;DHT22;67584;51.400;6.692;2023-08-17T08:52:36;20.90;79.30
78325;DHT22;67584;51.400;6.692;2023-08-17T08:55:15;20.90;79.20
78325;DHT22;67584;51.400;6.692;2023-08-17T08:57:41;20.80;79.10
78325;DHT22;67584;51.400;6.692;2023-08-17T09:00:08;20.90;79.20
78325;DHT22;67584;51.400;6.692;2023-08-17T09:02:35;20.70;79.50
78325;DHT22;67584;51.400;6.692;2023-08-17T09:05:01;20.70;79.50
78325;DHT22;67584;51.400;6.692;2023-08-17T09:07:31;20.70;79.60
78325;DHT22;67584;51.400;6.692;2023-08-17T09:09:58;20.70;79.60
78325;DHT22;67584;51.400;6.692;2023-08-17T09:12:24;20.80;79.50
78325;DHT22;67584;51.400;6.692;2023-08-17T09:14:50;20.80;79.60
78325;DHT22;67584;51.400;6.692;2023-08-17T09:17:26;20.70;79.60
78325;DHT22;67584;51.400;6.692;2023-08-17T09:19:52;20.70;79.50
78325;DHT22;67584;51.400;6.692;2023-08-17T09:22:25;20.90;79.00
78325;DHT22;67584;51.400;6.692;2023-08-17T09:24:51;21.00;79.40
78325;DHT22;67584;51.400;6.692;2023-08-17T09:27:17;20.90;79.30
78325;DHT22;67584;51.400;6.692;2023-08-17T09:29:46;20.90;79.50
78325;DHT22;67584;51.400;6.692;2023-08-17T09:32:14;21.00;79.30
78325;DHT22;67584;51.400;6.692;2023-08-17T09:34:43;21.10;79.10
78325;DHT22;67584;51.400;6.692;2023-08-17T09:37:09;21.10;78.80
78325;DHT22;67584;51.400;6.692;2023-08-17T09:39:37;21.00;78.70
78325;DHT22;67584;51.400;6.692;2023-08-17T09:42:02;21.10;78.80
78325;DHT22;67584;51.400;6.692;2023-08-17T09:44:28;20.90;78.60
78325;DHT22;67584;51.400;6.692;2023-08-17T09:46:57;21.00;78.70
78325;DHT22;67584;51.400;6.692;2023-08-17T09:49:24;21.00;78.90
78325;DHT22;67584;51.400;6.692;2023-08-17T09:51:50;21.10;78.70
78325;DHT22;67584;51.400;6.692;2023-08-17T09:54:30;21.20;78.40
78325;DHT22;67584;51.400;6.692;2023-08-17T09:57:00;21.20;78.50
78325;DHT22;67584;51.400;6.692;2023-08-17T09:59:27;21.40;78.40
78325;DHT22;67584;51.400;6.692;2023-08-17T10:01:53;21.50;77.60
78325;DHT22;67584;51.400;6.692;2023-08-17T10:04:23;21.50;77.80
78325;DHT22;67584;51.400;6.692;2023-08-17T10:06:53;21.60;77.70
78325;DHT22;67584;51.400;6.692;2023-08-17T10:09:24;22.10;77.00
78325;DHT22;67584;51.400;6.692;2023-08-17T10:11:52;22.20;76.30
78325;DHT22;67584;51.400;6.692;2023-08-17T10:14:26;22.20;76.00
78325;DHT22;67584;51.400;6.692;2023-08-17T10:16:59;22.30;75.70
78325;DHT22;67584;51.400;6.692;2023-08-17T10:22:19;22.60;75.10
78325;DHT22;67584;51.400;6.692;2023-08-17T10:24:47;22.70;75.40
78325;DHT22;67584;51.400;6.692;2023-08-17T10:27:15;22.60;75.40
78325;DHT22;67584;51.400;6.692;2023-08-17T10:29:42;22.60;75.40
78325;DHT22;67584;51.400;6.692;2023-08-17T10:32:09;22.70;75.20
78325;DHT22;67584;51.400;6.692;2023-08-17T10:34:36;22.80;75.10
78325;DHT22;67584;51.400;6.692;2023-08-17T10:37:02;22.70;74.70
78325;DHT22;67584;51.400;6.692;2023-08-17T10:39:29;22.50;74.80
78325;DHT22;67584;51.400;6.692;2023-08-17T10:41:56;22.80;74.90
78325;DHT22;67584;51.400;6.692;2023-08-17T10:47:38;22.90;74.10
78325;DHT22;67584;51.400;6.692;2023-08-17T10:50:05;22.70;74.90
78325;DHT22;67584;51.400;6.692;2023-08-17T10:52:36;22.70;74.90
78325;DHT22;67584;51.400;6.692;2023-08-17T10:55:08;23.00;74.50
78325;DHT22;67584;51.400;6.692;2023-08-17T10:57:41;22.80;74.10
78325;DHT22;67584;51.400;6.692;2023-08-17T11:00:22;22.50;74.70
78325;DHT22;67584;51.400;6.692;2023-08-17T11:03:08;22.70;74.40
78325;DHT22;67584;51.400;6.692;2023-08-17T11:08:09;23.50;73.20
78325;DHT22;67584;51.400;6.692;2023-08-17T11:10:35;23.60;73.20
78325;DHT22;67584;51.400;6.692;2023-08-17T11:13:01;24.00;72.50
78325;DHT22;67584;51.400;6.692;2023-08-17T11:15:38;24.20;71.00
78325;DHT22;67584;51.400;6.692;2023-08-17T11:18:06;24.40;71.00
78325;DHT22;67584;51.400;6.692;2023-08-17T11:20:32;24.80;69.60
78325;DHT22;67584;51.400;6.692;2023-08-17T11:22:58;24.80;69.40
78325;DHT22;67584;51.400;6.692;2023-08-17T11:25:26;24.70;69.10
78325;DHT22;67584;51.400;6.692;2023-08-17T11:27:53;24.40;69.70
78325;DHT22;67584;51.400;6.692;2023-08-17T11:30:20;24.30;69.70
78325;DHT22;67584;51.400;6.692;2023-08-17T11:32:48;24.20;71.00
78325;DHT22;67584;51.400;6.692;2023-08-17T11:35:14;24.40;70.40
78325;DHT22;67584;51.400;6.692;2023-08-17T11:37:40;24.20;70.90
78325;DHT22;67584;51.400;6.692;2023-08-17T11:40:06;24.20;70.90
78325;DHT22;67584;51.400;6.692;2023-08-17T11:42:31;23.90;71.50
78325;DHT22;67584;51.400;6.692;2023-08-17T11:44:57;23.90;71.40
78325;DHT22;67584;51.400;6.692;2023-08-17T11:47:23;23.90;71.50
78325;DHT22;67584;51.400;6.692;2023-08-17T11:49:49;23.90;71.40
78325;DHT22;67584;51.400;6.692;2023-08-17T11:52:15;23.80;71.70
78325;DHT22;67584;51.400;6.692;2023-08-17T11:54:41;23.90;71.80
78325;DHT22;67584;51.400;6.692;2023-08-17T11:57:07;23.80;71.40
78325;DHT22;67584;51.400;6.692;2023-08-17T11:59:33;23.90;71.40
78325;DHT22;67584;51.400;6.692;2023-08-17T12:02:00;24.00;71.50
78325;DHT22;67584;51.400;6.692;2023-08-17T12:04:26;24.00;71.30
78325;DHT22;67584;51.400;6.692;2023-08-17T12:06:52;24.10;71.30
78325;DHT22;67584;51.400;6.692;2023-08-17T12:09:18;24.20;70.50
78325;DHT22;67584;51.400;6.692;2023-08-17T12:11:47;24.30;70.60
78325;DHT22;67584;51.400;6.692;2023-08-17T12:14:12;24.20;70.80
78325;DHT22;67584;51.400;6.692;2023-08-17T12:16:48;24.20;70.70
78325;DHT22;67584;51.400;6.692;2023-08-17T12:19:18;24.30;70.70
78325;DHT22;67584;51.400;6.692;2023-08-17T12:21:45;24.30;70.80
78325;DHT22;67584;51.400;6.692;2023-08-17T12:24:13;24.00;71.50
78325;DHT22;67584;51.400;6.692;2023-08-17T12:26:46;23.90;71.30
78325;DHT22;67584;51.400;6.692;2023-08-17T12:29:12;23.90;71.80
78325;DHT22;67584;51.400;6.692;2023-08-17T12:31:38;23.90;71.80
78325;DHT22;67584;51.400;6.692;2023-08-17T12:34:04;23.90;71.80
78325;DHT22;67584;51.400;6.692;2023-08-17T12:36:32;23.90;71.70
78325;DHT22;67584;51.400;6.692;2023-08-17T12:38:57;23.70;71.80
78325;DHT22;67584;51.400;6.692;2023-08-17T12:41:23;23.70;72.10
78325;DHT22;67584;51.400;6.692;2023-08-17T12:43:49;23.60;72.30
78325;DHT22;67584;51.400;6.692;2023-08-17T12:46:14;23.60;72.40
78325;DHT22;67584;51.400;6.692;2023-08-17T12:48:40;23.60;72.40
78325;DHT22;67584;51.400;6.692;2023-08-17T12:51:06;23.60;72.60
78325;DHT22;67584;51.400;6.692;2023-08-17T12:53:31;23.70;72.50
78325;DHT22;67584;51.400;6.692;2023-08-17T12:55:57;23.70;72.60
78325;DHT22;67584;51.400;6.692;2023-08-17T12:58:24;23.60;72.50
78325;DHT22;67584;51.400;6.692;2023-08-17T13:00:49;23.60;72.90
78325;DHT22;67584;51.400;6.692;2023-08-17T13:03:18;23.70;72.20
78325;DHT22;67584;51.400;6.692;2023-08-17T13:05:44;23.70;72.60
78325;DHT22;67584;51.400;6.692;2023-08-17T13:08:10;24.00;72.00
78325;DHT22;67584;51.400;6.692;2023-08-17T13:10:36;24.10;71.70
78325;DHT22;67584;51.400;6.692;2023-08-17T13:13:02;24.00;71.60
78325;DHT22;67584;51.400;6.692;2023-08-17T13:15:31;24.00;71.80
78325;DHT22;67584;51.400;6.692;2023-08-17T13:17:58;24.00;71.70
78325;DHT22;67584;51.400;6.692;2023-08-17T13:20:23;23.80;72.50
78325;DHT22;67584;51.400;6.692;2023-08-17T13:22:49;23.70;72.70
78325;DHT22;67584;51.400;6.692;2023-08-17T13:25:15;23.70;72.90
78325;DHT22;67584;51.400;6.692;2023-08-17T13:27:40;23.60;73.20
78325;DHT22;67584;51.400;6.692;2023-08-17T13:30:06;23.40;73.10
78325;DHT22;67584;51.400;6.692;2023-08-17T13:32:32;23.50;73.50
78325;DHT22;67584;51.400;6.692;2023-08-17T13:34:58;23.50;73.40
78325;DHT22;67584;51.400;6.692;2023-08-17T13:37:24;23.50;73.50
78325;DHT22;67584;51.400;6.692;2023-08-17T13:39:49;23.60;73.30
78325;DHT22;67584;51.400;6.692;2023-08-17T13:42:15;23.50;73.10
78325;DHT22;67584;51.400;6.692;2023-08-17T13:44:41;23.50;73.10
78325;DHT22;67584;51.400;6.692;2023-08-17T13:47:07;23.30;73.70
78325;DHT22;67584;51.400;6.692;2023-08-17T13:49:33;23.20;73.90
78325;DHT22;67584;51.400;6.692;2023-08-17T13:51:58;23.20;74.00
78325;DHT22;67584;51.400;6.692;2023-08-17T13:54:24;23.30;73.90
78325;DHT22;67584;51.400;6.692;2023-08-17T13:56:50;23.30;73.70
78325;DHT22;67584;51.400;6.692;2023-08-17T13:59:16;23.30;73.60
78325;DHT22;67584;51.400;6.692;2023-08-17T14:01:42;23.20;73.90
78325;DHT22;67584;51.400;6.692;2023-08-17T14:04:08;23.10;74.30
78325;DHT22;67584;51.400;6.692;2023-08-17T14:06:40;23.20;74.10
78325;DHT22;67584;51.400;6.692;2023-08-17T14:09:09;22.90;74.40
78325;DHT22;67584;51.400;6.692;2023-08-17T14:11:34;22.80;74.70
78325;DHT22;67584;51.400;6.692;2023-08-17T14:14:00;22.80;74.90
78325;DHT22;67584;51.400;6.692;2023-08-17T14:16:26;22.80;75.10
78325;DHT22;67584;51.400;6.692;2023-08-17T14:18:52;22.80;75.20
78325;DHT22;67584;51.400;6.692;2023-08-17T14:21:17;22.80;75.20
78325;DHT22;67584;51.400;6.692;2023-08-17T14:23:43;22.80;75.00
78325;DHT22;67584;51.400;6.692;2023-08-17T14:26:09;22.80;74.60
78325;DHT22;67584;51.400;6.692;2023-08-17T14:28:35;22.80;74.90
78325;DHT22;67584;51.400;6.692;2023-08-17T14:31:01;23.10;74.60
78325;DHT22;67584;51.400;6.692;2023-08-17T14:33:26;23.00;74.40
78325;DHT22;67584;51.400;6.692;2023-08-17T14:35:52;23.10;74.50
78325;DHT22;67584;51.400;6.692;2023-08-17T14:38:18;23.00;74.60
78325;DHT22;67584;51.400;6.692;2023-08-17T14:40:44;23.00;74.70
78325;DHT22;67584;51.400;6.692;2023-08-17T14:43:11;23.00;74.60
78325;DHT22;67584;51.400;6.692;2023-08-17T14:45:40;23.10;74.50
78325;DHT22;67584;51.400;6.692;2023-08-17T14:48:09;23.30;74.10
78325;DHT22;67584;51.400;6.692;2023-08-17T14:50:36;23.40;74.10
78325;DHT22;67584;51.400;6.692;2023-08-17T14:53:03;23.70;73.70
78325;DHT22;67584;51.400;6.692;2023-08-17T14:55:32;23.80;73.30
78325;DHT22;67584;51.400;6.692;2023-08-17T14:57:58;23.90;73.10
78325;DHT22;67584;51.400;6.692;2023-08-17T15:00:25;24.10;72.10
78325;DHT22;67584;51.400;6.692;2023-08-17T15:02:54;24.20;71.80
78325;DHT22;67584;51.400;6.692;2023-08-17T15:05:20;24.10;71.70
78325;DHT22;67584;51.400;6.692;2023-08-17T15:07:47;24.10;72.00
78325;DHT22;67584;51.400;6.692;2023-08-17T15:10:12;24.10;71.80
78325;DHT22;67584;51.400;6.692;2023-08-17T15:12:39;24.00;72.10
78325;DHT22;67584;51.400;6.692;2023-08-17T15:15:07;23.90;72.40
78325;DHT22;67584;51.400;6.692;2023-08-17T15:17:33;23.80;72.60
78325;DHT22;67584;51.400;6.692;2023-08-17T15:19:59;23.90;72.10
78325;DHT22;67584;51.400;6.692;2023-08-17T15:22:26;24.00;71.90
78325;DHT22;67584;51.400;6.692;2023-08-17T15:24:52;24.10;71.50
78325;DHT22;67584;51.400;6.692;2023-08-17T15:27:17;24.20;71.20
78325;DHT22;67584;51.400;6.692;2023-08-17T15:29:43;24.40;71.00
78325;DHT22;67584;51.400;6.692;2023-08-17T15:32:09;24.50;70.30
78325;DHT22;67584;51.400;6.692;2023-08-17T15:34:35;24.30;70.50
78325;DHT22;67584;51.400;6.692;2023-08-17T15:37:01;24.10;71.00
78325;DHT22;67584;51.400;6.692;2023-08-17T15:39:27;24.20;71.10
78325;DHT22;67584;51.400;6.692;2023-08-17T15:41:53;24.30;70.60